Time;durP1;ratioP1;P1;durP2;ratioP2;P2;SDS_P1;SDS_P2;PMS_P1;PMS_P2;Temp;Humidity;BMP_temperature;BMP_pressure;BME280_temperature;BME280_humidity;BME280_pressure;Samples;Min_cycle;Max_cycle;Signal;HPM_P1;HPM_P2
2021/04/21 00:01:07;;;;;;;5.93;4.32;;;;;;;;;;5061681;28;20132;-64
2021/04/21 00:03:35;;;;;;;24.90;4.70;;;;;;;;;;5059295;28;20403;-64
2021/04/21 00:06:02;;;;;;;10.95;4.47;;;;;;;;;;5058476;28;20124;-64
2021/04/21 00:08:30;;;;;;;12.80;5.28;;;;;;;;;;5059990;28;20071;-64
2021/04/21 00:10:58;;;;;;;28.48;4.80;;;;;;;;;;5060698;28;20480;-64
2021/04/21 00:13:24;;;;;;;5.20;3.88;;;;;;;;;;5060812;28;20052;-64
2021/04/21 00:15:51;;;;;;;5.72;3.28;;;;;;;;;;5055627;28;20098;-64
2021/04/21 00:18:18;;;;;;;4.72;3.60;;;;;;;;;;5061337;28;20045;-64
2021/04/21 00:20:49;;;;;;;4.60;4.00;;;;;;;;;;5063007;28;20095;-64
2021/04/21 00:23:16;;;;;;;4.93;3.72;;;;;;;;;;5058722;28;20075;-64
2021/04/21 00:25:42;;;;;;;5.38;3.60;;;;;;;;;;5061884;28;20064;-63
2021/04/21 00:28:09;;;;;;;4.30;3.50;;;;;;;;;;5056423;28;20116;-64
2021/04/21 00:30:37;;;;;;;5.15;4.00;;;;;;;;;;5055766;28;20117;-64
2021/04/21 00:33:04;;;;;;;7.10;4.72;;;;;;;;;;5061044;28;20111;-64
2021/04/21 00:35:34;;;;;;;8.13;4.70;;;;;;;;;;5060712;28;20048;-64
2021/04/21 00:38:02;;;;;;;7.90;5.68;;;;;;;;;;5055112;28;20042;-64
2021/04/21 00:40:48;;;;;;;9.52;4.65;;;;;;;;;;5059716;28;20481;-64
2021/04/21 00:43:21;;;;;;;7.93;5.03;;;;;;;;;;5059069;28;20040;-64
2021/04/21 00:45:50;;;;;;;12.73;5.47;;;;;;;;;;5056391;28;20124;-64
2021/04/21 00:48:29;;;;;;;7.63;5.00;;;;;;;;;;5061808;28;20707;-64
2021/04/21 00:50:56;;;;;;;9.10;4.55;;;;;;;;;;5063802;28;20049;-64
2021/04/21 00:53:29;;;;;;;6.68;4.18;;;;;;;;;;5057539;28;20477;-64
2021/04/21 00:56:02;;;;;;;7.40;4.30;;;;;;;;;;5061409;28;20125;-64
2021/04/21 00:58:46;;;;;;;10.27;3.53;;;;;;;;;;5055389;28;20044;-64
2021/04/21 01:01:12;;;;;;;;;;;;;;;;;;5061685;28;20314;-64
2021/04/21 01:03:39;;;;;;;8.38;5.10;;;;;;;;;;5056537;28;20334;-64
2021/04/21 01:06:09;;;;;;;11.07;4.97;;;;;;;;;;5063279;28;20037;-64
2021/04/21 01:08:39;;;;;;;5.68;4.35;;;;;;;;;;5054246;28;20481;-64
2021/04/21 01:11:08;;;;;;;5.93;4.45;;;;;;;;;;5050571;28;20040;-63
2021/04/21 01:13:38;;;;;;;7.18;5.72;;;;;;;;;;5051242;28;21245;-63
2021/04/21 01:16:05;;;;;;;5.57;3.97;;;;;;;;;;5046770;28;20033;-64
2021/04/21 01:18:31;;;;;;;5.68;4.20;;;;;;;;;;5061783;28;20360;-64
2021/04/21 01:21:03;;;;;;;6.68;4.68;;;;;;;;;;5060833;28;20045;-64
2021/04/21 01:23:48;;;;;;;6.18;4.97;;;;;;;;;;5060534;28;20139;-64
2021/04/21 01:26:22;;;;;;;6.32;4.75;;;;;;;;;;5058957;28;20040;-64
2021/04/21 01:28:51;;;;;;;5.22;4.25;;;;;;;;;;5061509;28;20053;-64
2021/04/21 01:31:19;;;;;;;5.47;4.53;;;;;;;;;;5060762;28;20033;-64
2021/04/21 01:33:47;;;;;;;7.53;4.32;;;;;;;;;;5060672;28;20037;-64
2021/04/21 01:36:15;;;;;;;7.20;4.35;;;;;;;;;;5055382;28;22525;-64
2021/04/21 01:38:42;;;;;;;9.23;6.35;;;;;;;;;;5063260;28;20044;-64
2021/04/21 01:41:10;;;;;;;10.05;7.10;;;;;;;;;;5060866;28;20056;-64
2021/04/21 01:43:39;;;;;;;12.20;7.72;;;;;;;;;;5060685;28;20064;-64
2021/04/21 01:46:06;;;;;;;14.48;9.80;;;;;;;;;;5061682;28;20041;-63
2021/04/21 01:48:34;;;;;;;10.32;7.38;;;;;;;;;;5064149;28;20521;-63
2021/04/21 01:51:04;;;;;;;9.00;7.00;;;;;;;;;;5064236;28;20040;-64
2021/04/21 01:53:30;;;;;;;7.97;6.38;;;;;;;;;;5065747;28;20044;-64
2021/04/21 01:56:02;;;;;;;10.60;7.57;;;;;;;;;;5064138;28;20040;-64
2021/04/21 01:58:47;;;;;;;31.60;12.52;;;;;;;;;;5065251;28;20056;-64
2021/04/21 02:01:22;;;;;;;91.60;11.40;;;;;;;;;;5062817;28;20182;-64
2021/04/21 02:03:50;;;;;;;31.17;9.40;;;;;;;;;;5066419;28;20516;-64
2021/04/21 02:06:26;;;;;;;43.05;7.97;;;;;;;;;;5062055;28;20161;-64
2021/04/21 02:08:56;;;;;;;42.60;6.85;;;;;;;;;;5058065;28;20068;-64
2021/04/21 02:11:25;;;;;;;45.00;6.28;;;;;;;;;;5057971;28;20401;-64
2021/04/21 02:14:10;;;;;;;6.97;4.03;;;;;;;;;;5057271;28;20425;-63
2021/04/21 02:16:42;;;;;;;32.05;5.47;;;;;;;;;;5054966;28;20047;-63
2021/04/21 02:19:12;;;;;;;6.38;4.47;;;;;;;;;;5058723;28;20371;-63
2021/04/21 02:21:52;;;;;;;21.77;4.95;;;;;;;;;;5060655;28;20057;-63
2021/04/21 02:24:27;;;;;;;4.88;4.03;;;;;;;;;;5061634;28;20044;-64
2021/04/21 02:27:14;;;;;;;5.35;3.80;;;;;;;;;;5059337;28;20049;-63
2021/04/21 02:29:46;;;;;;;7.85;3.75;;;;;;;;;;5057419;28;20044;-63
2021/04/21 02:32:24;;;;;;;10.18;2.97;;;;;;;;;;5057716;28;20037;-64
2021/04/21 02:35:03;;;;;;;8.88;4.13;;;;;;;;;;5059237;28;20044;-64
2021/04/21 02:37:30;;;;;;;4.15;3.13;;;;;;;;;;5052084;28;20404;-64
2021/04/21 02:40:06;;;;;;;4.70;3.40;;;;;;;;;;5060275;28;20109;-63
2021/04/21 02:42:40;;;;;;;6.88;3.65;;;;;;;;;;5058436;28;20040;-64
2021/04/21 02:45:13;;;;;;;4.20;3.20;;;;;;;;;;5056344;28;20055;-63
2021/04/21 02:47:48;;;;;;;4.97;3.38;;;;;;;;;;5058494;28;20155;-64
2021/04/21 02:50:31;;;;;;;5.65;4.20;;;;;;;;;;5058842;28;20063;-64
2021/04/21 02:53:06;;;;;;;6.15;4.72;;;;;;;;;;5061115;28;20049;-64
2021/04/21 02:55:38;;;;;;;7.15;5.35;;;;;;;;;;5054213;28;20045;-64
2021/04/21 02:58:15;;;;;;;7.85;5.85;;;;;;;;;;5056432;28;20072;-64
2021/04/21 03:00:43;;;;;;;6.85;4.53;;;;;;;;;;5057533;28;20075;-63
2021/04/21 03:03:13;;;;;;;7.63;5.93;;;;;;;;;;5054949;28;20147;-64
2021/04/21 03:05:43;;;;;;;9.45;6.88;;;;;;;;;;5052997;28;20387;-64
2021/04/21 03:08:12;;;;;;;6.68;5.28;;;;;;;;;;5055145;28;20072;-64
2021/04/21 03:10:42;;;;;;;7.63;6.43;;;;;;;;;;5058121;28;20452;-64
2021/04/21 03:13:10;;;;;;;8.10;5.63;;;;;;;;;;5053949;28;20044;-64
2021/04/21 03:15:38;;;;;;;8.52;6.63;;;;;;;;;;5045647;28;20053;-64
2021/04/21 03:18:05;;;;;;;14.15;8.48;;;;;;;;;;5041558;28;20037;-63
2021/04/21 03:20:32;;;;;;;15.38;11.35;;;;;;;;;;5048182;28;20048;-64
2021/04/21 03:23:00;;;;;;;13.95;10.02;;;;;;;;;;5060753;28;20032;-63
2021/04/21 03:25:27;;;;;;;11.52;8.27;;;;;;;;;;5059396;28;20089;-64
2021/04/21 03:27:56;;;;;;;8.70;7.05;;;;;;;;;;5051359;28;20434;-64
2021/04/21 03:30:25;;;;;;;8.73;6.97;;;;;;;;;;5057318;28;20048;-64
2021/04/21 03:32:54;;;;;;;8.75;6.53;;;;;;;;;;5052837;28;20427;-64
2021/04/21 03:35:23;;;;;;;10.02;7.82;;;;;;;;;;5053832;28;20037;-64
2021/04/21 03:37:50;;;;;;;11.90;8.23;;;;;;;;;;5052636;28;20054;-64
2021/04/21 03:40:18;;;;;;;10.73;8.32;;;;;;;;;;5054481;28;20044;-64
2021/04/21 03:42:44;;;;;;;12.15;10.00;;;;;;;;;;5059195;28;20079;-64
2021/04/21 03:45:11;;;;;;;12.48;9.60;;;;;;;;;;5060631;28;20041;-64
2021/04/21 03:47:38;;;;;;;11.50;8.02;;;;;;;;;;5064358;28;20048;-64
2021/04/21 03:50:06;;;;;;;15.10;9.82;;;;;;;;;;5065344;28;20033;-64
2021/04/21 03:52:35;;;;;;;10.45;7.78;;;;;;;;;;5061417;28;20037;-64
2021/04/21 03:55:02;;;;;;;13.27;8.50;;;;;;;;;;5058669;28;20068;-64
2021/04/21 03:57:29;;;;;;;9.75;7.65;;;;;;;;;;5056504;28;20123;-64
2021/04/21 03:59:57;;;;;;;12.05;9.07;;;;;;;;;;5060428;28;20032;-64
2021/04/21 04:02:26;;;;;;;10.43;7.90;;;;;;;;;;5063504;28;20060;-63
2021/04/21 04:04:56;;;;;;;10.98;8.30;;;;;;;;;;5067195;28;20436;-64
2021/04/21 04:07:25;;;;;;;12.25;8.68;;;;;;;;;;5066034;28;20040;-63
2021/04/21 04:10:02;;;;;;;10.18;8.52;;;;;;;;;;5067298;28;20110;-64
2021/04/21 04:12:30;;;;;;;9.68;7.57;;;;;;;;;;5066492;28;20044;-64
2021/04/21 04:14:58;;;;;;;11.38;8.65;;;;;;;;;;5067876;28;20079;-64
2021/04/21 04:17:25;;;;;;;9.88;8.40;;;;;;;;;;5062455;28;20079;-64
2021/04/21 04:19:52;;;;;;;11.68;9.80;;;;;;;;;;5067364;28;20043;-64
2021/04/21 04:22:20;;;;;;;12.90;10.18;;;;;;;;;;5066526;28;20045;-64
2021/04/21 04:24:53;;;;;;;17.42;13.52;;;;;;;;;;5064878;28;20044;-64
2021/04/21 04:27:20;;;;;;;21.52;16.45;;;;;;;;;;5071436;28;20085;-64
2021/04/21 04:29:47;;;;;;;18.95;16.55;;;;;;;;;;5068155;28;20144;-64
2021/04/21 04:32:14;;;;;;;20.27;16.48;;;;;;;;;;5074168;28;20502;-64
2021/04/21 04:34:48;;;;;;;23.35;17.02;;;;;;;;;;5064515;28;20072;-63
2021/04/21 04:37:15;;;;;;;25.00;18.52;;;;;;;;;;5056796;28;20032;-64
2021/04/21 04:39:42;;;;;;;23.05;18.02;;;;;;;;;;5061418;28;20090;-64
2021/04/21 04:42:09;;;;;;;28.08;19.67;;;;;;;;;;5062227;28;20139;-64
2021/04/21 04:44:36;;;;;;;29.02;21.60;;;;;;;;;;5061633;28;20056;-63
2021/04/21 04:47:06;;;;;;;30.95;23.38;;;;;;;;;;5058427;28;20499;-64
2021/04/21 04:49:38;;;;;;;29.20;22.75;;;;;;;;;;5060012;28;20385;-64
2021/04/21 04:52:08;;;;;;;31.80;23.63;;;;;;;;;;5058656;28;20059;-64
2021/04/21 04:54:36;;;;;;;31.40;24.98;;;;;;;;;;5064139;28;20135;-64
2021/04/21 04:57:04;;;;;;;35.40;26.08;;;;;;;;;;5062753;28;20128;-64
2021/04/21 04:59:31;;;;;;;32.90;25.83;;;;;;;;;;5060333;28;20049;-64
2021/04/21 05:01:58;;;;;;;34.72;26.60;;;;;;;;;;5063894;28;20048;-64
2021/04/21 05:04:32;;;;;;;37.25;26.42;;;;;;;;;;5065247;28;20036;-65
2021/04/21 05:07:00;;;;;;;32.10;26.10;;;;;;;;;;5049293;28;21533;-64
2021/04/21 05:09:29;;;;;;;33.40;25.20;;;;;;;;;;5054518;28;20048;-64
2021/04/21 05:11:57;;;;;;;35.15;25.88;;;;;;;;;;5047547;28;20167;-64
2021/04/21 05:14:25;;;;;;;35.83;27.05;;;;;;;;;;5065875;28;20146;-64
2021/04/21 05:16:57;;;;;;;40.75;28.08;;;;;;;;;;5053265;28;20685;-63
2021/04/21 05:19:44;;;;;;;39.13;28.45;;;;;;;;;;5059990;28;20037;-64
2021/04/21 05:22:42;;;;;;;40.95;29.02;;;;;;;;;;5059256;28;20089;-64
2021/04/21 05:25:28;;;;;;;50.22;35.70;;;;;;;;;;5060185;28;20064;-64
2021/04/21 05:28:17;;;;;;;50.75;35.05;;;;;;;;;;5054980;28;20074;-64
2021/04/21 05:31:02;;;;;;;57.03;40.28;;;;;;;;;;5066666;28;20037;-64
2021/04/21 05:33:32;;;;;;;65.18;43.65;;;;;;;;;;5058526;28;20080;-64
2021/04/21 05:36:26;;;;;;;70.78;47.97;;;;;;;;;;5052272;28;20090;-64
2021/04/21 05:39:15;;;;;;;72.13;49.28;;;;;;;;;;5066668;28;20051;-64
2021/04/21 05:42:16;;;;;;;77.85;51.95;;;;;;;;;;5063329;28;20043;-64
2021/04/21 05:45:03;;;;;;;75.13;50.65;;;;;;;;;;5066603;28;20112;-64
2021/04/21 05:47:41;;;;;;;93.50;53.90;;;;;;;;;;5063223;28;20040;-64
2021/04/21 05:50:30;;;;;;;91.30;49.33;;;;;;;;;;5057191;28;20121;-64
2021/04/21 05:53:27;;;;;;;89.47;47.58;;;;;;;;;;5055730;28;20044;-64
2021/04/21 05:56:00;;;;;;;101.65;45.42;;;;;;;;;;5058808;28;20037;-64
2021/04/21 05:58:36;;;;;;;108.82;43.60;;;;;;;;;;5058788;28;20045;-64
2021/04/21 06:01:16;;;;;;;99.93;44.15;;;;;;;;;;5051502;28;20129;-64
2021/04/21 06:03:44;;;;;;;92.57;40.97;;;;;;;;;;5060472;28;20044;-64
2021/04/21 06:06:11;;;;;;;92.68;39.58;;;;;;;;;;5058620;28;20047;-64
2021/04/21 06:08:37;;;;;;;85.13;37.95;;;;;;;;;;5070931;28;20158;-64
2021/04/21 06:11:04;;;;;;;80.95;38.28;;;;;;;;;;5067596;28;20515;-64
2021/04/21 06:13:30;;;;;;;83.40;39.17;;;;;;;;;;5066373;28;20054;-64
2021/04/21 06:16:00;;;;;;;88.10;37.97;;;;;;;;;;5058617;28;20080;-64
2021/04/21 06:18:27;;;;;;;91.05;37.75;;;;;;;;;;5065880;28;20073;-64
2021/04/21 06:20:53;;;;;;;87.07;39.58;;;;;;;;;;5059844;28;20062;-64
2021/04/21 06:23:20;;;;;;;86.70;40.67;;;;;;;;;;5061485;28;20449;-64
2021/04/21 06:25:49;;;;;;;84.72;38.50;;;;;;;;;;5063087;28;20065;-64
2021/04/21 06:28:17;;;;;;;83.75;39.15;;;;;;;;;;5055516;28;20090;-64
2021/04/21 06:30:44;;;;;;;77.97;38.10;;;;;;;;;;5060260;28;20136;-64
2021/04/21 06:33:11;;;;;;;74.40;38.17;;;;;;;;;;5060760;28;20045;-64
2021/04/21 06:35:38;;;;;;;67.82;33.65;;;;;;;;;;5053466;28;20049;-64
2021/04/21 06:38:06;;;;;;;65.65;34.15;;;;;;;;;;5058549;28;20052;-64
2021/04/21 06:40:33;;;;;;;62.75;34.15;;;;;;;;;;5061395;28;20062;-64
2021/04/21 06:43:00;;;;;;;56.65;32.00;;;;;;;;;;5062955;28;20043;-63
2021/04/21 06:45:29;;;;;;;58.95;33.92;;;;;;;;;;5061205;28;20045;-64
2021/04/21 06:47:56;;;;;;;65.97;36.25;;;;;;;;;;5066522;28;20059;-64
2021/04/21 06:50:27;;;;;;;60.42;34.05;;;;;;;;;;5068818;28;20048;-64
2021/04/21 06:52:58;;;;;;;56.25;33.47;;;;;;;;;;5067714;28;20143;-64
2021/04/21 06:55:24;;;;;;;62.90;35.05;;;;;;;;;;5064875;28;20060;-63
2021/04/21 06:57:51;;;;;;;53.70;34.00;;;;;;;;;;5061713;28;20052;-64
2021/04/21 07:00:19;;;;;;;57.22;32.45;;;;;;;;;;5062535;28;20099;-64
2021/04/21 07:02:46;;;;;;;51.30;29.73;;;;;;;;;;5064707;28;20091;-63
2021/04/21 07:05:31;;;;;;;47.13;27.80;;;;;;;;;;5057281;28;20064;-64
2021/04/21 07:08:05;;;;;;;42.30;26.52;;;;;;;;;;5061047;28;20060;-64
2021/04/21 07:10:33;;;;;;;44.63;25.33;;;;;;;;;;5063138;28;20124;-63
2021/04/21 07:13:00;;;;;;;42.75;25.70;;;;;;;;;;5062764;28;20052;-64
2021/04/21 07:15:29;;;;;;;37.35;24.83;;;;;;;;;;5051193;28;20068;-64
2021/04/21 07:17:56;;;;;;;39.33;24.25;;;;;;;;;;5058669;28;20484;-63
2021/04/21 07:20:22;;;;;;;36.47;22.75;;;;;;;;;;5062654;28;20063;-64
2021/04/21 07:22:49;;;;;;;33.25;23.10;;;;;;;;;;5060927;28;20107;-64
2021/04/21 07:25:16;;;;;;;36.67;24.05;;;;;;;;;;5061149;28;20041;-63
2021/04/21 07:27:44;;;;;;;38.53;24.42;;;;;;;;;;5055772;28;20102;-64
2021/04/21 07:30:11;;;;;;;41.20;23.38;;;;;;;;;;5063232;28;20052;-64
2021/04/21 07:32:44;;;;;;;33.38;22.17;;;;;;;;;;5059811;28;20140;-64
2021/04/21 07:35:16;;;;;;;38.30;22.88;;;;;;;;;;5055324;28;20293;-63
2021/04/21 07:37:44;;;;;;;42.50;22.80;;;;;;;;;;5062031;28;20055;-64
2021/04/21 07:40:22;;;;;;;35.78;20.33;;;;;;;;;;5059339;28;20036;-64
2021/04/21 07:42:48;;;;;;;35.13;20.45;;;;;;;;;;5059106;28;20047;-64
2021/04/21 07:45:16;;;;;;;32.97;18.48;;;;;;;;;;5056439;28;20465;-64
2021/04/21 07:47:43;;;;;;;31.85;17.77;;;;;;;;;;5048036;28;20052;-64
2021/04/21 07:50:10;;;;;;;30.90;16.67;;;;;;;;;;5062285;28;20207;-64
2021/04/21 07:52:37;;;;;;;32.13;15.57;;;;;;;;;;5059873;28;20052;-64
2021/04/21 07:55:06;;;;;;;21.58;11.30;;;;;;;;;;5049742;28;20114;-65
2021/04/21 07:57:32;;;;;;;17.30;9.05;;;;;;;;;;5056290;28;20373;-65
2021/04/21 07:59:59;;;;;;;10.10;5.20;;;;;;;;;;5054833;28;20392;-65
2021/04/21 08:02:34;;;;;;;10.38;4.10;;;;;;;;;;5055208;28;20408;-64
2021/04/21 08:05:10;;;;;;;13.40;4.75;;;;;;;;;;5050603;28;20404;-63
2021/04/21 08:07:38;;;;;;;7.18;4.00;;;;;;;;;;5055642;28;20037;-64
2021/04/21 08:10:06;;;;;;;9.68;3.65;;;;;;;;;;5054793;28;20489;-64
2021/04/21 08:12:35;;;;;;;13.60;4.82;;;;;;;;;;5063648;28;20140;-64
2021/04/21 08:15:04;;;;;;;7.70;3.05;;;;;;;;;;5061084;28;20472;-64
2021/04/21 08:17:31;;;;;;;7.25;3.00;;;;;;;;;;5046949;28;20041;-64
2021/04/21 08:19:58;;;;;;;7.32;2.92;;;;;;;;;;5066728;28;20166;-64
2021/04/21 08:22:27;;;;;;;9.38;3.38;;;;;;;;;;5051683;28;20111;-64
2021/04/21 08:24:54;;;;;;;7.38;2.65;;;;;;;;;;5062550;28;20498;-64
2021/04/21 08:27:21;;;;;;;7.55;2.15;;;;;;;;;;5056965;28;20041;-64
2021/04/21 08:29:47;;;;;;;11.57;2.20;;;;;;;;;;5057113;28;20044;-64
2021/04/21 08:32:19;;;;;;;8.98;2.13;;;;;;;;;;5068948;28;20056;-64
2021/04/21 08:34:46;;;;;;;7.22;1.50;;;;;;;;;;5053608;28;20049;-64
2021/04/21 08:37:13;;;;;;;10.20;2.20;;;;;;;;;;5053811;28;20120;-64
2021/04/21 08:39:40;;;;;;;8.23;1.48;;;;;;;;;;5069330;28;20048;-64
2021/04/21 08:42:08;;;;;;;10.15;2.05;;;;;;;;;;5062751;28;20504;-64
2021/04/21 08:44:40;;;;;;;11.23;1.88;;;;;;;;;;5052956;28;20163;-64
2021/04/21 08:47:07;;;;;;;6.97;1.88;;;;;;;;;;5054564;28;20108;-64
2021/04/21 08:49:33;;;;;;;5.72;2.05;;;;;;;;;;5063570;28;20048;-64
2021/04/21 08:52:00;;;;;;;10.85;2.50;;;;;;;;;;5060797;28;20576;-64
2021/04/21 08:54:27;;;;;;;10.85;2.03;;;;;;;;;;5062482;28;20143;-64
2021/04/21 08:56:54;;;;;;;14.25;2.70;;;;;;;;;;5060304;28;20052;-64
2021/04/21 08:59:20;;;;;;;11.82;1.70;;;;;;;;;;5065004;28;20514;-64
2021/04/21 09:01:47;;;;;;;11.85;2.03;;;;;;;;;;5067973;28;20143;-64
2021/04/21 09:04:15;;;;;;;15.63;2.28;;;;;;;;;;5064983;28;20049;-64
2021/04/21 09:06:42;;;;;;;11.20;2.10;;;;;;;;;;5059173;28;20580;-64
2021/04/21 09:09:09;;;;;;;6.68;1.83;;;;;;;;;;5057938;28;20044;-64
2021/04/21 09:11:36;;;;;;;10.57;2.10;;;;;;;;;;5067089;28;20044;-64
2021/04/21 09:14:03;;;;;;;12.70;2.42;;;;;;;;;;5063692;28;20068;-64
2021/04/21 09:16:30;;;;;;;15.63;2.70;;;;;;;;;;5056011;28;20047;-64
2021/04/21 09:18:56;;;;;;;10.20;1.58;;;;;;;;;;5054060;28;20345;-64
2021/04/21 09:21:26;;;;;;;10.38;1.90;;;;;;;;;;5060521;28;20102;-64
2021/04/21 09:23:53;;;;;;;8.52;1.80;;;;;;;;;;5064140;28;20126;-63
2021/04/21 09:26:21;;;;;;;13.23;1.95;;;;;;;;;;5055440;28;20060;-64
2021/04/21 09:28:51;;;;;;;18.73;2.63;;;;;;;;;;5068840;28;20044;-63
2021/04/21 09:31:22;;;;;;;13.05;3.05;;;;;;;;;;5049823;28;20143;-64
2021/04/21 09:33:54;;;;;;;11.50;2.45;;;;;;;;;;5057108;28;20922;-64
2021/04/21 09:36:31;;;;;;;13.05;2.25;;;;;;;;;;5049114;28;20079;-64
2021/04/21 09:39:18;;;;;;;9.88;1.90;;;;;;;;;;5052571;28;20112;-64
2021/04/21 09:41:45;;;;;;;16.70;2.55;;;;;;;;;;5050938;28;20045;-63
2021/04/21 09:44:15;;;;;;;18.08;2.97;;;;;;;;;;5062270;28;20040;-64
2021/04/21 09:46:42;;;;;;;13.23;2.10;;;;;;;;;;5067920;28;20467;-64
2021/04/21 09:49:27;;;;;;;15.60;2.30;;;;;;;;;;5061600;28;20106;-64
2021/04/21 09:51:53;;;;;;;13.60;2.70;;;;;;;;;;5068127;28;20041;-64
2021/04/21 09:54:35;;;;;;;16.83;2.47;;;;;;;;;;5068209;28;20036;-64
2021/04/21 09:57:07;;;;;;;13.57;2.63;;;;;;;;;;5078900;28;20036;-64
2021/04/21 09:59:33;;;;;;;13.93;2.20;;;;;;;;;;5071764;28;20040;-64
2021/04/21 10:01:59;;;;;;;16.27;3.25;;;;;;;;;;5082794;28;20092;-64
2021/04/21 10:04:26;;;;;;;17.67;2.72;;;;;;;;;;5085129;28;20040;-64
2021/04/21 10:06:55;;;;;;;15.60;3.22;;;;;;;;;;5086133;28;20052;-64
2021/04/21 10:09:23;;;;;;;16.95;3.55;;;;;;;;;;5066021;28;20097;-63
2021/04/21 10:11:50;;;;;;;16.45;2.63;;;;;;;;;;5068834;28;20523;-65
2021/04/21 10:14:23;;;;;;;20.80;4.50;;;;;;;;;;5070713;28;20068;-64
2021/04/21 10:16:50;;;;;;;14.70;3.58;;;;;;;;;;5070049;28;20045;-67
2021/04/21 10:19:17;;;;;;;11.90;2.90;;;;;;;;;;5082035;28;20073;-64
2021/04/21 10:21:43;;;;;;;19.27;3.67;;;;;;;;;;5090901;28;20036;-64
2021/04/21 10:24:10;;;;;;;15.27;3.88;;;;;;;;;;5075371;28;20487;-75
2021/04/21 10:26:36;;;;;;;16.83;3.13;;;;;;;;;;5065500;28;20465;-64
2021/04/21 10:29:03;;;;;;;13.50;3.13;;;;;;;;;;5063839;28;20048;-64
2021/04/21 10:31:29;;;;;;;15.38;3.17;;;;;;;;;;5064649;28;20451;-64
2021/04/21 10:33:56;;;;;;;14.27;3.00;;;;;;;;;;5068139;28;20045;-64
2021/04/21 10:36:22;;;;;;;25.90;3.38;;;;;;;;;;5069116;28;20052;-64
2021/04/21 10:38:49;;;;;;;16.33;3.80;;;;;;;;;;5063636;28;20063;-63
2021/04/21 10:41:21;;;;;;;21.02;3.47;;;;;;;;;;5087337;28;20044;-64
2021/04/21 10:43:49;;;;;;;13.90;2.97;;;;;;;;;;5068533;28;20053;-64
2021/04/21 10:46:16;;;;;;;16.60;3.20;;;;;;;;;;5088918;28;20051;-64
2021/04/21 10:48:44;;;;;;;21.85;4.18;;;;;;;;;;5090797;28;20063;-64
2021/04/21 10:51:39;;;;;;;18.35;3.38;;;;;;;;;;5062574;28;20095;-65
2021/04/21 10:54:05;;;;;;;;;;;;;;;;;;5058393;28;20052;-65
2021/04/21 10:56:32;;;;;;;13.50;2.92;;;;;;;;;;5056299;28;20030;-64
2021/04/21 10:59:00;;;;;;;14.82;3.75;;;;;;;;;;5035822;28;20041;-64
2021/04/21 11:01:29;;;;;;;11.23;3.00;;;;;;;;;;5045886;28;20124;-65
2021/04/21 11:03:55;;;;;;;16.80;3.67;;;;;;;;;;5049446;28;20041;-64
2021/04/21 11:06:48;;;;;;;15.25;3.60;;;;;;;;;;5059539;28;20094;-64
2021/04/21 11:09:16;;;;;;;12.95;3.45;;;;;;;;;;5053075;28;20037;-64
2021/04/21 11:11:47;;;;;;;12.65;2.97;;;;;;;;;;5044363;28;20091;-64
2021/04/21 11:14:15;;;;;;;14.10;3.67;;;;;;;;;;5057095;28;20048;-64
2021/04/21 11:16:42;;;;;;;14.18;3.13;;;;;;;;;;5057782;28;20105;-64
2021/04/21 11:19:28;;;;;;;12.65;4.00;;;;;;;;;;5056523;28;20045;-64
2021/04/21 11:22:14;;;;;;;14.50;3.97;;;;;;;;;;5035315;28;20140;-64
2021/04/21 11:24:40;;;;;;;14.75;3.35;;;;;;;;;;5055092;28;20048;-64
2021/04/21 11:27:26;;;;;;;16.38;3.70;;;;;;;;;;5035144;28;20061;-64
2021/04/21 11:29:53;;;;;;;14.63;3.25;;;;;;;;;;5054984;28;20060;-64
2021/04/21 11:32:19;;;;;;;20.50;4.05;;;;;;;;;;5048749;28;20067;-64
2021/04/21 11:34:45;;;;;;;15.63;3.83;;;;;;;;;;5044961;28;20045;-64
2021/04/21 11:37:18;;;;;;;16.00;4.25;;;;;;;;;;5058174;28;20045;-64
2021/04/21 11:39:47;;;;;;;20.88;3.78;;;;;;;;;;5054026;28;20092;-64
2021/04/21 11:42:29;;;;;;;12.57;3.28;;;;;;;;;;5051118;28;20056;-64
2021/04/21 11:44:57;;;;;;;16.88;3.38;;;;;;;;;;5050298;28;20492;-64
2021/04/21 11:47:30;;;;;;;16.50;3.47;;;;;;;;;;5050213;28;20348;-64
2021/04/21 11:50:10;;;;;;;17.33;3.10;;;;;;;;;;5052290;28;20700;-64
2021/04/21 11:52:44;;;;;;;14.35;3.72;;;;;;;;;;5062468;28;20048;-64
2021/04/21 11:55:18;;;;;;;13.23;2.85;;;;;;;;;;5065507;28;20033;-64
2021/04/21 11:57:49;;;;;;;14.63;3.60;;;;;;;;;;5068739;28;20095;-64
2021/04/21 12:00:16;;;;;;;10.88;2.92;;;;;;;;;;5065511;28;20099;-64
2021/04/21 12:02:42;;;;;;;11.93;2.60;;;;;;;;;;5065928;28;20056;-64
2021/04/21 12:05:09;;;;;;;12.90;3.50;;;;;;;;;;5064136;28;20178;-64
2021/04/21 12:07:35;;;;;;;17.65;3.50;;;;;;;;;;5066045;28;20075;-64
2021/04/21 12:10:01;;;;;;;18.05;3.50;;;;;;;;;;5066766;28;20452;-64
2021/04/21 12:12:28;;;;;;;18.52;4.45;;;;;;;;;;5063353;28;20116;-65
2021/04/21 12:15:03;;;;;;;10.20;2.88;;;;;;;;;;5066939;28;20052;-64
2021/04/21 12:17:30;;;;;;;17.95;3.60;;;;;;;;;;5065482;28;20055;-64
2021/04/21 12:19:58;;;;;;;12.88;2.92;;;;;;;;;;5065596;28;20044;-64
2021/04/21 12:22:41;;;;;;;22.48;4.28;;;;;;;;;;5069123;28;20373;-64
2021/04/21 12:25:08;;;;;;;14.65;3.38;;;;;;;;;;5065265;28;20087;-64
2021/04/21 12:27:35;;;;;;;10.82;3.17;;;;;;;;;;5060937;28;21021;-65
2021/04/21 12:30:11;;;;;;;15.63;3.25;;;;;;;;;;5063705;28;20134;-64
2021/04/21 12:32:37;;;;;;;11.88;2.78;;;;;;;;;;5056515;28;20041;-65
2021/04/21 12:35:04;;;;;;;13.48;3.80;;;;;;;;;;5060876;28;20040;-64
2021/04/21 12:37:31;;;;;;;13.07;3.63;;;;;;;;;;5056099;28;20072;-64
2021/04/21 12:39:57;;;;;;;14.73;3.25;;;;;;;;;;5054055;28;20040;-64
2021/04/21 12:42:23;;;;;;;13.68;3.13;;;;;;;;;;5050121;28;20048;-64
2021/04/21 12:44:50;;;;;;;11.13;3.10;;;;;;;;;;5068247;28;20409;-64
2021/04/21 12:47:16;;;;;;;13.40;3.65;;;;;;;;;;5066867;28;20094;-64
2021/04/21 12:49:46;;;;;;;9.95;2.38;;;;;;;;;;5068578;28;20128;-64
2021/04/21 12:52:16;;;;;;;9.98;2.65;;;;;;;;;;5062214;28;20044;-65
2021/04/21 12:54:48;;;;;;;13.30;3.60;;;;;;;;;;5070475;28;20476;-64
2021/04/21 12:57:15;;;;;;;15.70;2.90;;;;;;;;;;5065174;28;20051;-64
2021/04/21 12:59:43;;;;;;;13.80;3.20;;;;;;;;;;5070284;28;20335;-64
2021/04/21 13:02:12;;;;;;;13.93;2.80;;;;;;;;;;5071677;28;20048;-64
2021/04/21 13:04:41;;;;;;;12.00;2.50;;;;;;;;;;5073057;28;20443;-64
2021/04/21 13:07:12;;;;;;;13.35;2.88;;;;;;;;;;5071400;28;20053;-65
2021/04/21 13:09:38;;;;;;;13.45;3.03;;;;;;;;;;5072776;28;20055;-64
2021/04/21 13:12:06;;;;;;;12.88;2.92;;;;;;;;;;5072726;28;20104;-64
2021/04/21 13:14:36;;;;;;;12.40;3.15;;;;;;;;;;5072279;28;20048;-64
2021/04/21 13:17:03;;;;;;;11.35;2.67;;;;;;;;;;5068581;28;20438;-64
2021/04/21 13:19:30;;;;;;;13.90;3.03;;;;;;;;;;5072743;28;20079;-65
2021/04/21 13:21:57;;;;;;;15.15;2.58;;;;;;;;;;5073207;28;20037;-64
2021/04/21 13:24:24;;;;;;;11.65;2.63;;;;;;;;;;5071958;28;20088;-64
2021/04/21 13:26:52;;;;;;;13.32;3.00;;;;;;;;;;5072300;28;20036;-64
2021/04/21 13:29:30;;;;;;;14.45;2.97;;;;;;;;;;5068275;28;20052;-65
2021/04/21 13:32:05;;;;;;;11.43;3.00;;;;;;;;;;5058408;28;20136;-64
2021/04/21 13:34:32;;;;;;;17.83;3.00;;;;;;;;;;5065562;28;20036;-65
2021/04/21 13:36:58;;;;;;;13.27;2.83;;;;;;;;;;5061127;28;20481;-65
2021/04/21 13:39:24;;;;;;;15.45;3.22;;;;;;;;;;5069204;28;20125;-65
2021/04/21 13:41:50;;;;;;;14.00;2.35;;;;;;;;;;5062746;28;20045;-65
2021/04/21 13:44:17;;;;;;;8.93;2.15;;;;;;;;;;5068102;28;20076;-65
2021/04/21 13:46:43;;;;;;;12.23;2.45;;;;;;;;;;5059914;28;20492;-64
2021/04/21 13:49:09;;;;;;;9.40;2.35;;;;;;;;;;5070048;28;20040;-64
2021/04/21 13:51:36;;;;;;;10.40;2.38;;;;;;;;;;5068339;28;20045;-64
2021/04/21 13:54:02;;;;;;;12.98;3.13;;;;;;;;;;5063563;28;20143;-64
2021/04/21 13:56:29;;;;;;;10.30;1.80;;;;;;;;;;5061909;28;20123;-64
2021/04/21 13:58:55;;;;;;;8.35;2.28;;;;;;;;;;5067365;28;20388;-65
2021/04/21 14:01:21;;;;;;;14.60;2.45;;;;;;;;;;5062020;28;20047;-64
2021/04/21 14:03:47;;;;;;;9.75;1.95;;;;;;;;;;5057687;28;20045;-64
2021/04/21 14:06:14;;;;;;;15.52;2.00;;;;;;;;;;5063001;28;20048;-64
2021/04/21 14:08:40;;;;;;;14.70;2.65;;;;;;;;;;5063503;28;20679;-64
2021/04/21 14:11:06;;;;;;;11.13;1.50;;;;;;;;;;5061385;28;20215;-64
2021/04/21 14:13:33;;;;;;;8.50;1.90;;;;;;;;;;5060477;28;20048;-64
2021/04/21 14:15:59;;;;;;;8.68;2.05;;;;;;;;;;5069481;28;20041;-64
2021/04/21 14:18:26;;;;;;;11.38;1.90;;;;;;;;;;5059865;28;20051;-64
2021/04/21 14:20:52;;;;;;;7.68;1.45;;;;;;;;;;5067179;28;20063;-64
2021/04/21 14:23:19;;;;;;;9.57;1.77;;;;;;;;;;5072360;28;20055;-64
2021/04/21 14:25:45;;;;;;;7.07;1.48;;;;;;;;;;5071975;28;20059;-64
2021/04/21 14:28:11;;;;;;;9.00;1.67;;;;;;;;;;5061550;28;20052;-64
2021/04/21 14:30:38;;;;;;;9.43;1.20;;;;;;;;;;5061483;28;20067;-64
2021/04/21 14:33:04;;;;;;;7.20;1.73;;;;;;;;;;5062549;28;20137;-64
2021/04/21 14:35:30;;;;;;;10.55;1.77;;;;;;;;;;5057396;28;20167;-64
2021/04/21 14:37:57;;;;;;;7.10;1.48;;;;;;;;;;5088418;28;20059;-64
2021/04/21 14:40:23;;;;;;;8.20;1.58;;;;;;;;;;5080067;28;20044;-64
2021/04/21 14:42:49;;;;;;;11.05;2.00;;;;;;;;;;5074481;28;20480;-64
2021/04/21 14:45:16;;;;;;;10.07;2.25;;;;;;;;;;5055588;28;20480;-64
2021/04/21 14:47:42;;;;;;;10.40;1.73;;;;;;;;;;5058408;28;20487;-64